Latest Weather Observations for Cape Otway

IDV60801

Issued at 5:05 am EST Tuesday 2 September 2014 (issued every 30 minutes, with the page automatically refreshed every 10 minutes)

About weather observations | Map of weather stations | Latest weather observations for VIC | Other Formats
Station Details ID: 090015 Name: CAPE OTWAY LIGHTHOUSE Lat: -38.86 Lon: 143.51 Height: 82.0 m
Data from the previous 72 hours. | See also: Recent months at Cape Otway
Date/Time
EST
Temp
°C
App
Temp
°C
Dew
Point
Rel
Hum
%
Delta-T
°C
Wind Press
QNH
hPa
Press
MSL
hPa
Rain
since 9 am
mm
Dir
 
Spd
km/h
Gust
km/h
Spd
kts
Gust
kts
02/05:00am 10.7 2.9 5.0 68 2.6 - 35 46 19 25 1016.1 - 2.2
02/04:30am 10.9 5.0 3.9 62 3.1 - 24 37 13 20 1015.5 - 2.2
02/04:00am 11.0 3.3 2.4 55 3.7 - 32 43 17 23 1015.2 - 2.2
02/03:30am 9.6 5.8 5.7 76 1.8 - 15 28 8 15 1015.3 - 2.2
02/03:17am 10.2 2.2 5.9 74 2.0 - 37 56 20 30 1015.2 - 2.0
02/03:00am 11.0 3.6 5.1 67 2.7 - 33 48 18 26 1014.9 1015.1 2.0
02/02:30am 11.3 3.8 3.4 58 3.5 - 32 43 17 23 1014.6 - 2.0
02/02:00am 11.0 5.2 4.3 63 3.0 - 24 37 13 20 1014.4 - 2.0
02/01:30am 11.3 4.7 6.0 70 2.5 - 30 43 16 23 1014.2 - 2.0
02/01:00am 11.3 5.4 5.7 68 2.6 - 26 37 14 20 1013.9 - 2.0
02/12:30am 11.5 4.2 4.7 63 3.1 - 32 41 17 22 1013.9 - 2.0
02/12:00am 11.4 5.0 5.3 66 2.8 - 28 35 15 19 1013.8 1013.9 2.0
 
Date/Time
EST
Temp
°C
App
Temp
°C
Dew
Point
Rel
Hum
%
Delta-T
°C
Wind Press
QNH
hPa
Press
MSL
hPa
Rain
since 9 am
mm
Dir
 
Spd
km/h
Gust
km/h
Spd
kts
Gust
kts
01/11:30pm 11.5 4.8 5.5 66 2.8 - 30 37 16 20 1013.4 - 2.0
01/11:22pm 11.6 4.6 6.1 69 2.6 W 32 37 17 20 1013.3 - 2.0
01/11:20pm 11.6 4.6 6.1 69 2.6 - 32 37 17 20 1013.3 - 2.0
01/11:00pm 10.1 7.3 6.9 80 1.5 - 11 17 6 9 1013.3 - 2.0
01/10:30pm 9.8 7.0 6.8 81 1.4 - 11 13 6 7 1013.1 - 2.0
01/10:00pm 10.3 4.5 6.2 76 1.9 - 26 41 14 22 1013.0 - 2.0
01/09:30pm 11.1 6.2 7.1 76 1.9 - 22 28 12 15 1012.6 - 2.0
01/09:00pm 11.1 5.5 7.1 76 1.9 - 26 37 14 20 1012.2 1012.3 2.0
01/08:30pm 11.7 7.0 6.2 69 2.6 - 20 24 11 13 1012.1 - 1.8
01/08:00pm 11.7 7.1 6.7 71 2.4 - 20 26 11 14 1012.0 - 1.8
01/07:30pm 11.9 7.0 6.9 71 2.4 - 22 30 12 16 1011.6 - 1.8
01/07:00pm 11.6 8.1 7.0 73 2.2 - 15 22 8 12 1011.2 - 1.8
01/06:30pm 11.7 7.8 6.9 72 2.3 - 17 26 9 14 1011.0 - 1.8
01/06:00pm 11.8 7.2 6.3 69 2.6 - 20 28 11 15 1010.5 1010.6 1.8
01/05:30pm 11.8 5.7 6.8 71 2.4 - 28 37 15 20 1010.2 - 1.8
01/05:00pm 12.0 6.3 6.6 69 2.6 - 26 35 14 19 1009.9 - 1.8
01/04:30pm 11.9 7.3 8.0 77 1.9 - 22 32 12 17 1009.5 - 1.8
01/04:00pm 11.8 7.0 7.3 74 2.2 - 22 35 12 19 1009.2 - 1.6
01/03:30pm 12.0 7.8 8.2 77 1.9 - 20 26 11 14 1008.9 - 1.6
01/03:00pm 11.9 7.7 8.3 78 1.8 - 20 28 11 15 1008.8 1008.9 1.6
01/02:30pm 11.1 5.3 9.3 89 0.9 - 30 41 16 22 1008.6 - 1.6
01/02:16pm 12.4 6.6 7.9 74 2.2 - 28 54 15 29 1008.4 - 1.0
01/02:14pm 12.4 6.6 7.9 74 2.2 - 28 54 15 29 1008.4 - 1.0
01/02:00pm 13.2 7.7 7.7 69 2.7 - 26 35 14 19 1008.5 - 1.0
01/01:30pm 12.9 7.0 7.6 70 2.6 - 28 41 15 22 1008.3 - 1.0
01/01:00pm 12.6 6.7 7.7 72 2.4 - 28 37 15 20 1008.5 - 1.0
01/12:30pm 11.8 5.7 8.4 80 1.7 - 30 39 16 21 1008.5 - 1.0
01/12:00pm 11.8 7.0 9.0 83 1.4 - 24 33 13 18 1008.6 1008.7 1.0
01/11:30am 12.1 5.7 8.5 78 1.8 - 32 43 17 23 1008.4 - 1.0
01/11:00am 11.7 6.3 9.5 86 1.1 - 28 43 15 23 1008.2 - 1.0
01/10:30am 12.0 6.4 10.1 88 1.0 - 30 41 16 22 1008.0 - 1.0
01/10:06am 11.6 5.6 10.0 90 0.8 - 32 50 17 27 1007.9 - 1.0
01/10:00am 11.6 5.6 10.0 90 0.8 - 32 44 17 24 1007.8 - 1.0
01/09:53am 11.6 6.4 10.4 92 0.6 - 28 46 15 25 1007.7 - 0.8
01/09:52am 11.6 6.4 10.2 91 0.7 - 28 46 15 25 1007.7 - 0.8
01/09:30am 11.5 6.5 9.5 87 1.0 - 26 39 14 21 1007.5 - 0.0
01/09:00am 11.6 6.2 9.4 86 1.1 - 28 46 15 25 1007.2 1007.3 1.6
01/08:58am 11.6 6.2 9.4 86 1.1 - 28 46 15 25 1007.2 - 1.6
01/08:30am 11.4 7.1 9.2 86 1.1 - 22 35 12 19 1006.9 - 1.6
01/08:00am 11.1 7.2 9.3 89 0.9 - 20 33 11 18 1006.8 - 1.6
01/07:30am 11.4 7.3 10.0 91 0.7 - 22 35 12 19 1006.8 - 1.6
01/07:00am 11.8 7.4 10.3 90 0.8 - 24 35 13 19 1006.8 - 0.8
01/06:30am 12.0 8.0 10.3 89 0.9 - 22 39 12 21 1006.4 - 0.4
01/06:00am 12.5 7.9 9.6 82 1.5 - 24 41 13 22 1006.2 1006.2 0.2
01/05:30am 12.3 8.5 9.8 85 1.3 - 20 35 11 19 1006.1 - 0.0
01/05:00am 12.4 8.7 9.5 82 1.5 - 19 28 10 15 1006.4 - 0.0
01/04:30am 13.3 9.0 7.9 70 2.7 - 20 35 11 19 1006.7 - 0.0
01/04:00am 14.4 8.9 6.1 57 4.0 - 24 33 13 18 1006.9 - 0.0
01/03:30am 15.3 9.8 3.9 46 5.3 - 22 32 12 17 1006.8 - 0.0
01/03:00am 15.2 10.8 4.6 49 5.0 - 17 30 9 16 1006.5 1006.6 0.0
01/02:30am 15.5 11.1 4.7 48 5.1 - 17 30 9 16 1006.4 - 0.0
01/02:00am 15.6 10.6 4.8 48 5.1 - 20 30 11 16 1007.0 - 0.0
01/01:30am 14.9 11.5 5.7 54 4.4 - 13 17 7 9 1006.7 - 0.0
01/01:00am 15.1 11.6 7.2 59 3.9 - 15 20 8 11 1007.3 - 0.0
01/12:30am 15.0 11.9 7.4 60 3.8 - 13 19 7 10 1007.5 - 0.0
01/12:00am 15.5 11.6 7.0 57 4.2 - 17 22 9 12 1007.7 1007.8 0.0
 
Date/Time
EST
Temp
°C
App
Temp
°C
Dew
Point
Rel
Hum
%
Delta-T
°C
Wind Press
QNH
hPa
Press
MSL
hPa
Rain
since 9 am
mm
Dir
 
Spd
km/h
Gust
km/h
Spd
kts
Gust
kts
31/11:30pm 16.8 12.0 4.9 45 5.7 - 19 33 10 18 1008.0 - 0.0
31/11:07pm 17.7 11.0 3.4 38 6.7 - 28 46 15 25 1007.5 - 0.0
31/11:05pm 17.7 11.0 3.4 38 6.7 - 28 46 15 25 1007.5 - 0.0
31/11:00pm 17.6 10.9 3.8 40 6.5 - 28 39 15 21 1007.6 - 0.0
31/10:30pm 17.3 11.2 4.8 43 6.0 - 26 37 14 20 1008.3 - 0.0
31/10:00pm 16.8 11.4 6.2 49 5.2 - 24 37 13 20 1008.9 - 0.0
31/09:30pm 16.9 11.9 6.6 50 5.1 - 22 30 12 16 1009.2 - 0.0
31/09:00pm 17.4 13.3 6.3 48 5.5 - 17 32 9 17 1009.4 1009.5 0.0
31/08:30pm 17.8 13.0 5.8 45 5.9 - 20 39 11 21 1009.1 - 0.0
31/08:00pm 17.8 12.4 6.3 47 5.7 - 24 35 13 19 1009.8 - 0.0
31/07:30pm 17.7 12.3 6.4 47 5.6 - 24 37 13 20 1010.0 - 0.0
31/07:00pm 17.8 12.0 6.3 47 5.7 - 26 41 14 22 1010.4 - 0.0
31/06:30pm 18.0 12.7 6.6 47 5.7 - 24 39 13 21 1010.4 - 0.0
31/06:00pm 18.1 14.2 7.2 49 5.5 - 17 28 9 15 1010.5 1010.6 0.0
31/05:30pm 18.6 14.1 7.1 47 5.8 - 20 30 11 16 1010.5 - 0.0
31/05:00pm 19.3 14.3 6.6 43 6.4 - 22 33 12 18 1010.6 - 0.0
31/04:30pm 20.0 14.1 5.7 39 7.1 - 26 37 14 20 1010.7 - 0.0
31/04:00pm 20.9 16.0 6.8 40 7.2 - 22 33 12 18 1010.8 - 0.0
31/03:30pm 21.0 16.6 7.5 41 7.0 - 20 32 11 17 1011.0 - 0.0
31/03:00pm 21.0 16.2 7.2 41 7.1 - 22 35 12 19 1011.3 1011.4 0.0
31/02:30pm 20.7 15.9 7.5 42 6.8 - 22 32 12 17 1011.7 - 0.0
31/02:00pm 19.9 14.6 6.9 43 6.6 - 24 39 13 21 1011.9 - 0.0
31/01:30pm 20.3 15.4 6.7 41 6.9 - 22 41 12 22 1012.5 - 0.0
31/01:00pm 19.2 12.9 5.9 41 6.6 - 28 39 15 21 1012.8 - 0.0
31/12:30pm 18.6 11.4 6.1 44 6.2 - 33 48 18 26 1013.2 - 0.0
31/12:00pm 17.9 10.3 5.6 44 6.0 - 35 54 19 29 1013.6 1013.7 0.0
31/11:30am 17.7 11.0 5.6 45 5.9 - 30 48 16 26 1014.3 - 0.0
31/11:26am 17.6 10.9 5.7 45 5.8 - 30 48 16 26 1014.3 - 0.0
31/11:00am 17.0 11.1 5.9 48 5.4 - 26 43 14 23 1014.7 - 0.0
31/10:31am 16.9 9.8 5.3 46 5.6 - 32 52 17 28 1015.0 - 0.0
31/10:30am 17.0 9.9 5.4 46 5.6 - 32 44 17 24 1015.0 - 0.0
31/10:01am 18.0 11.3 5.5 43 6.1 - 30 48 16 26 1015.3 - 0.0
31/10:00am 18.0 10.9 5.5 43 6.1 - 32 48 17 26 1015.3 - 0.0
31/09:35am 18.0 11.3 5.5 43 6.1 - 30 48 16 26 1015.7 - 0.0
31/09:30am 17.8 11.0 5.2 43 6.1 - 30 46 16 25 1015.7 - 0.0
31/09:11am 17.5 10.6 4.7 42 6.1 - 30 48 16 26 1015.8 - 0.0
31/09:00am 17.2 9.9 4.6 43 6.0 - 32 46 17 25 1015.7 1015.8 0.0
31/08:49am 17.0 10.1 4.8 44 5.8 - 30 48 16 26 1015.8 - 0.0
31/08:47am 17.0 10.1 4.8 44 5.8 - 30 48 16 26 1015.8 - 0.0
31/08:30am 16.5 9.2 4.7 45 5.6 - 32 46 17 25 1015.8 - 0.0
31/08:00am 15.6 8.2 5.1 49 5.0 - 33 46 18 25 1016.1 - 0.0
31/07:30am 14.8 7.7 5.3 53 4.5 - 32 48 17 26 1016.2 - 0.0
31/07:00am 14.4 7.7 5.6 55 4.2 - 30 46 16 25 1016.1 - 0.0
31/06:30am 14.4 7.4 5.8 56 4.1 - 32 43 17 23 1016.1 - 0.0
31/06:00am 14.4 7.8 6.1 57 4.0 - 30 41 16 22 1016.2 1016.3 0.0
31/05:30am 14.5 7.9 6.2 57 4.0 - 30 41 16 22 1016.2 - 0.0
31/05:00am 14.6 8.0 6.1 56 4.1 - 30 41 16 22 1016.4 - 0.0
31/04:30am 14.8 8.2 6.1 56 4.2 - 30 43 16 23 1016.3 - 0.0
31/04:00am 14.8 9.0 6.1 56 4.2 - 26 35 14 19 1016.6 - 0.0
31/03:30am 15.0 9.2 6.1 55 4.3 - 26 37 14 20 1016.8 - 0.0
31/03:00am 14.9 9.5 6.2 56 4.2 - 24 33 13 18 1017.0 1017.1 0.0
31/02:30am 15.0 10.0 6.3 56 4.2 - 22 32 12 17 1017.4 - 0.0
31/02:00am 15.1 9.5 7.0 58 4.0 - 26 35 14 19 1017.7 - 0.0
31/01:30am 14.8 9.6 7.3 61 3.7 - 24 33 13 18 1017.9 - 0.0
31/01:00am 14.8 8.9 7.5 61 3.6 - 28 33 15 18 1018.2 - 0.0
31/12:30am 14.7 9.3 7.9 63 3.4 - 26 32 14 17 1018.4 - 0.0
31/12:00am 14.6 9.7 8.5 67 3.1 - 24 32 13 17 1018.7 1018.8 0.0
 
Date/Time
EST
Temp
°C
App
Temp
°C
Dew
Point
Rel
Hum
%
Delta-T
°C
Wind Press
QNH
hPa
Press
MSL
hPa
Rain
since 9 am
mm
Dir
 
Spd
km/h
Gust
km/h
Spd
kts
Gust
kts
30/11:30pm 14.6 10.1 8.7 67 3.0 - 22 30 12 16 1019.0 - 0.0
30/11:00pm 14.5 10.0 8.6 67 3.0 - 22 28 12 15 1019.3 - 0.0
30/10:30pm 14.0 10.0 8.4 69 2.8 - 19 24 10 13 1019.6 - 0.0
30/10:00pm 12.1 9.2 8.2 77 1.9 - 13 17 7 9 1020.0 - 0.0
30/09:30pm 10.9 10.1 8.0 82 1.4 - 2 9 1 5 1020.4 - 0.0
30/09:00pm 10.9 9.7 8.2 83 1.3 - 4 7 2 4 1020.4 1020.5 0.0
30/08:30pm 11.9 10.2 8.5 80 1.7 - 7 9 4 5 1020.7 - 0.0
30/08:00pm 12.9 10.5 8.5 74 2.2 - 11 13 6 7 1020.8 - 0.0
30/07:30pm 13.1 10.3 8.5 73 2.3 - 13 15 7 8 1020.8 - 0.0
30/07:00pm 12.7 9.6 8.7 76 2.0 - 15 17 8 9 1020.8 - 0.0
30/06:30pm 12.9 10.1 8.7 75 2.1 - 13 19 7 10 1020.7 - 0.0
30/06:00pm 13.0 10.0 9.3 78 1.9 - 15 19 8 10 1020.7 1020.8 0.0
30/05:30pm 13.6 11.4 9.5 76 2.1 - 11 15 6 8 1020.7 - 0.0
30/05:00pm 14.4 12.3 9.8 74 2.4 - 11 17 6 9 1020.9 - 0.0
30/04:30pm 14.3 12.3 10.3 77 2.1 - 11 17 6 9 1021.0 - 0.0
30/04:00pm 14.0 12.2 11.0 82 1.6 - 11 15 6 8 1021.0 - 0.0
30/03:30pm 14.2 12.9 11.4 83 1.5 - 9 13 5 7 1021.1 - 0.0
30/03:00pm 14.0 12.2 11.0 82 1.6 - 11 15 6 8 1021.3 1021.4 0.0
30/02:30pm 13.8 11.7 11.2 84 1.4 - 13 17 7 9 1021.6 - 0.0
30/02:00pm 13.6 11.9 11.1 85 1.3 - 11 17 6 9 1021.9 - 0.0
30/01:30pm 14.0 12.6 10.8 81 1.7 - 9 15 5 8 1022.2 - 0.0
30/01:00pm 13.5 11.2 10.4 81 1.6 - 13 17 7 9 1022.4 - 0.0
30/12:30pm 13.4 11.1 10.5 82 1.5 - 13 20 7 11 1022.8 - 0.0
30/12:00pm 12.8 10.5 10.3 85 1.3 - 13 24 7 13 1023.2 1023.3 0.0
30/11:30am 13.2 10.9 10.5 84 1.4 - 13 22 7 12 1023.6 - 0.0
30/11:00am 12.9 10.6 10.4 85 1.3 - 13 22 7 12 1024.0 - 0.0
30/10:30am 12.9 10.5 10.2 84 1.4 - 13 22 7 12 1024.2 - 0.0
30/10:00am 12.6 9.8 9.9 83 1.4 - 15 19 8 10 1024.5 - 0.0
30/09:30am 13.0 9.7 9.5 79 1.8 - 17 24 9 13 1025.0 - 0.0
30/09:00am 12.7 9.7 9.3 80 1.7 - 15 24 8 13 1025.3 1025.5 0.2
30/08:30am 12.2 9.2 9.2 82 1.5 - 15 22 8 12 1025.6 - 0.2
30/08:00am 11.4 8.8 9.4 87 1.0 - 13 19 7 10 1025.8 - 0.2
30/07:30am 10.5 7.1 9.1 91 0.7 - 17 24 9 13 1025.7 - 0.2
30/07:00am 10.5 6.6 9.3 92 0.6 - 20 28 11 15 1025.4 - 0.0
30/06:30am 10.5 6.8 9.5 93 0.5 - 19 26 10 14 1025.3 - 0.0
30/06:00am 10.6 6.9 9.6 93 0.5 - 19 24 10 13 1025.1 1025.3 0.0
30/05:30am 10.8 7.2 9.8 93 0.5 - 19 24 10 13 1025.1 - 0.0

Other Formats:

Comma delimited format used in spreadsheet applications
http://www.bom.gov.au/fwo/IDV60801/IDV60801.94842.axf

JavaScript Object Notation format (JSON) in row-major order
http://www.bom.gov.au/fwo/IDV60801/IDV60801.94842.json